createdAt,value
2019-02-14T00:00:13.768Z,9.08
2019-02-14T00:01:21.653Z,8.03
2019-02-14T00:02:28.277Z,11.05
2019-02-14T00:03:35.664Z,8.45
2019-02-14T00:04:42.684Z,8.48
2019-02-14T00:05:49.146Z,8.10
2019-02-14T00:06:56.035Z,7.33
2019-02-14T00:08:03.224Z,7.50
2019-02-14T00:09:10.515Z,7.28
2019-02-14T00:10:17.723Z,7.97
2019-02-14T00:11:24.752Z,7.10
2019-02-14T00:12:31.553Z,6.50
2019-02-14T00:13:38.394Z,7.30
2019-02-14T00:14:44.844Z,5.90
2019-02-14T00:15:51.631Z,7.10
2019-02-14T00:16:57.563Z,7.00
2019-02-14T00:18:03.224Z,7.05
2019-02-14T00:19:08.869Z,6.20
2019-02-14T00:20:14.511Z,6.87
2019-02-14T00:21:20.186Z,7.62
2019-02-14T00:22:25.854Z,10.68
2019-02-14T00:23:31.538Z,9.68
2019-02-14T00:24:37.181Z,6.97
2019-02-14T00:25:42.843Z,6.92
2019-02-14T00:26:48.490Z,6.85
2019-02-14T00:27:55.405Z,6.75
2019-02-14T00:29:02.292Z,7.35
2019-02-14T00:30:10.725Z,7.17
2019-02-14T00:31:17.488Z,6.60
2019-02-14T00:32:23.924Z,6.87
2019-02-14T00:33:30.975Z,7.03
2019-02-14T00:34:37.394Z,9.58
2019-02-14T00:35:44.265Z,29.12
2019-02-14T00:36:50.649Z,9.78
2019-02-14T00:37:57.218Z,10.82
2019-02-14T00:39:03.694Z,10.05
2019-02-14T00:40:11.344Z,8.40
2019-02-14T00:41:17.910Z,8.78
2019-02-14T00:42:24.889Z,8.08
2019-02-14T00:43:32.027Z,6.87
2019-02-14T00:44:38.918Z,7.12
2019-02-14T00:45:45.803Z,6.53
2019-02-14T00:46:51.504Z,6.37
2019-02-14T00:47:57.147Z,5.85
2019-02-14T00:49:02.788Z,6.00
2019-02-14T00:50:09.118Z,5.75
2019-02-14T00:51:14.698Z,6.35
2019-02-14T00:52:22.152Z,5.72
2019-02-14T00:53:27.778Z,5.53
2019-02-14T00:54:33.458Z,6.80
2019-02-14T00:55:39.093Z,8.05
2019-02-14T00:56:45.543Z,8.15
2019-02-14T00:57:51.731Z,7.80
2019-02-14T00:58:58.553Z,6.83
2019-02-14T01:00:06.472Z,6.90
2019-02-14T01:01:13.173Z,6.72
2019-02-14T01:02:19.844Z,6.92
2019-02-14T01:03:26.200Z,6.83
2019-02-14T01:04:33.003Z,7.30
2019-02-14T01:05:40.288Z,6.72
2019-02-14T01:06:46.905Z,6.78
2019-02-14T01:07:53.671Z,6.30
2019-02-14T01:09:00.591Z,6.60
2019-02-14T01:10:12.308Z,6.75
2019-02-14T01:11:19.183Z,6.37
2019-02-14T01:12:25.701Z,17.50
2019-02-14T01:13:32.275Z,13.50
2019-02-14T01:14:38.287Z,7.45
2019-02-14T01:15:44.055Z,6.20
2019-02-14T01:16:49.888Z,6.72
2019-02-14T01:17:55.747Z,6.25
2019-02-14T01:19:01.408Z,6.10
2019-02-14T01:20:08.170Z,6.03
2019-02-14T01:21:14.817Z,6.15
2019-02-14T01:22:20.482Z,6.35
2019-02-14T01:23:26.587Z,5.60
2019-02-14T01:24:32.938Z,5.65
2019-02-14T01:25:38.601Z,5.58
2019-02-14T01:26:45.234Z,6.03
2019-02-14T01:27:51.335Z,5.35
2019-02-14T01:28:58.651Z,6.42
2019-02-14T01:30:08.737Z,6.87
2019-02-14T01:31:15.027Z,6.20
2019-02-14T01:32:23.520Z,6.40
2019-02-14T01:33:30.008Z,7.45
2019-02-14T01:34:36.629Z,8.88
2019-02-14T01:35:43.287Z,9.68
2019-02-14T01:36:50.665Z,8.95
2019-02-14T01:37:57.938Z,8.48
2019-02-14T01:39:05.963Z,7.37
2019-02-14T01:40:12.845Z,6.50
2019-02-14T01:41:19.184Z,6.15
2019-02-14T01:42:26.114Z,5.83
2019-02-14T01:43:32.531Z,5.42
2019-02-14T01:44:38.824Z,5.67
2019-02-14T01:45:44.505Z,9.33
2019-02-14T01:46:50.297Z,45.95
2019-02-14T01:47:56.064Z,123.97
2019-02-14T01:49:01.875Z,197.30
2019-02-14T01:50:11.015Z,161.80
2019-02-14T01:51:17.314Z,115.12
2019-02-14T01:52:24.190Z,138.92
2019-02-14T01:53:30.055Z,143.37
2019-02-14T01:54:35.691Z,57.65
2019-02-14T01:55:41.634Z,38.63
2019-02-14T01:56:49.175Z,28.60
2019-02-14T01:57:56.331Z,33.25
2019-02-14T01:59:04.123Z,31.97
2019-02-14T02:00:15.641Z,19.67
2019-02-14T02:01:22.534Z,11.12
2019-02-14T02:02:29.571Z,8.60
2019-02-14T02:03:36.025Z,8.98
2019-02-14T02:04:42.896Z,6.05
2019-02-14T02:05:51.023Z,5.83
2019-02-14T02:06:57.606Z,6.15
2019-02-14T02:08:05.221Z,5.97
2019-02-14T02:09:12.181Z,5.55
2019-02-14T02:10:19.335Z,5.00
2019-02-14T02:11:26.310Z,6.15
2019-02-14T02:12:33.234Z,7.10
2019-02-14T02:13:40.261Z,7.20
2019-02-14T02:14:46.392Z,7.00
2019-02-14T02:15:52.054Z,6.47
2019-02-14T02:16:57.962Z,6.87
2019-02-14T02:18:03.612Z,7.12
2019-02-14T02:19:09.575Z,7.53
2019-02-14T02:20:15.444Z,7.40
2019-02-14T02:21:21.574Z,6.92
2019-02-14T02:22:27.244Z,6.70
2019-02-14T02:23:32.911Z,5.83
2019-02-14T02:24:38.550Z,5.70
2019-02-14T02:25:44.155Z,6.30
2019-02-14T02:26:49.834Z,36.17
2019-02-14T02:27:56.874Z,83.12
2019-02-14T02:29:04.274Z,76.57
2019-02-14T02:30:15.266Z,63.40
2019-02-14T02:31:21.704Z,43.08
2019-02-14T02:32:29.480Z,18.02
2019-02-14T02:33:37.457Z,12.00
2019-02-14T02:34:44.243Z,9.13
2019-02-14T02:36:00.005Z,7.78
2019-02-14T02:36:59.284Z,6.95
2019-02-14T02:38:06.854Z,12.33
2019-02-14T02:39:14.672Z,9.08
2019-02-14T02:40:22.625Z,7.60
2019-02-14T02:41:29.131Z,8.28
2019-02-14T02:42:36.110Z,7.35
2019-02-14T02:43:42.634Z,7.15
2019-02-14T02:44:49.730Z,7.08
2019-02-14T02:45:55.403Z,6.97
2019-02-14T02:47:01.244Z,8.23
2019-02-14T02:48:06.928Z,8.25
2019-02-14T02:49:12.930Z,14.78
2019-02-14T02:50:18.825Z,15.40
2019-02-14T02:51:24.823Z,11.50
2019-02-14T02:52:31.163Z,8.60
2019-02-14T02:53:37.103Z,12.15
2019-02-14T02:54:42.776Z,11.60
2019-02-14T02:55:48.448Z,10.98
2019-02-14T02:56:54.136Z,7.97
2019-02-14T02:58:01.634Z,7.40
2019-02-14T02:59:07.593Z,6.95
2019-02-14T03:00:17.923Z,7.87
2019-02-14T03:01:24.673Z,6.47
2019-02-14T03:02:31.268Z,7.60
2019-02-14T03:03:37.666Z,7.30
2019-02-14T03:04:43.834Z,7.85
2019-02-14T03:05:50.831Z,8.05
2019-02-14T03:06:57.685Z,7.83
2019-02-14T03:08:04.788Z,8.35
2019-02-14T03:09:12.385Z,8.43
2019-02-14T03:10:19.154Z,8.33
2019-02-14T03:11:26.055Z,8.60
2019-02-14T03:12:33.086Z,8.60
2019-02-14T03:13:39.589Z,8.50
2019-02-14T03:14:46.432Z,8.43
2019-02-14T03:15:52.345Z,8.13
2019-02-14T03:16:58.165Z,10.48
2019-02-14T03:18:05.278Z,11.10
2019-02-14T03:19:10.918Z,9.25
2019-02-14T03:20:16.573Z,8.43
2019-02-14T03:21:22.244Z,8.55
2019-02-14T03:22:28.433Z,7.47
2019-02-14T03:23:34.565Z,7.67
2019-02-14T03:24:40.294Z,8.05
2019-02-14T03:25:45.973Z,7.30
2019-02-14T03:26:52.483Z,7.25
2019-02-14T03:27:59.524Z,7.90
2019-02-14T03:29:06.109Z,7.67
2019-02-14T03:30:16.234Z,7.67
2019-02-14T03:31:23.048Z,8.75
2019-02-14T03:32:30.081Z,9.30
2019-02-14T03:33:36.935Z,10.48
2019-02-14T03:34:43.474Z,21.15
2019-02-14T03:35:50.171Z,39.55
2019-02-14T03:36:57.812Z,38.98
2019-02-14T03:38:04.202Z,24.32
2019-02-14T03:39:11.052Z,16.82
2019-02-14T03:40:18.143Z,12.28
2019-02-14T03:41:25.849Z,9.83
2019-02-14T03:42:33.212Z,8.68
2019-02-14T03:43:40.563Z,9.25
2019-02-14T03:44:47.436Z,8.00
2019-02-14T03:45:53.187Z,7.50
2019-02-14T03:46:58.896Z,7.67
2019-02-14T03:48:04.576Z,7.40
2019-02-14T03:49:10.545Z,8.30
2019-02-14T03:50:16.216Z,25.10
2019-02-14T03:51:22.436Z,25.95
2019-02-14T03:52:28.296Z,37.10
2019-02-14T03:53:34.066Z,22.30
2019-02-14T03:54:40.166Z,18.20
2019-02-14T03:55:46.126Z,11.80
2019-02-14T03:56:51.798Z,12.37
2019-02-14T03:57:59.194Z,9.58
2019-02-14T03:59:06.516Z,10.18
2019-02-14T04:00:18.921Z,9.93
2019-02-14T04:01:25.736Z,9.73
2019-02-14T04:02:33.103Z,8.80
2019-02-14T04:03:41.417Z,9.38
2019-02-14T04:04:48.604Z,8.40
2019-02-14T04:05:55.301Z,7.37
2019-02-14T04:07:02.245Z,7.90
2019-02-14T04:08:09.315Z,7.62
2019-02-14T04:09:17.416Z,7.60
2019-02-14T04:10:23.177Z,10.03
2019-02-14T04:11:30.568Z,8.25
2019-02-14T04:12:37.407Z,22.40
2019-02-14T04:13:44.135Z,21.37
2019-02-14T04:14:50.888Z,16.05
2019-02-14T04:15:56.537Z,13.55
2019-02-14T04:17:02.169Z,8.90
2019-02-14T04:18:08.177Z,9.18
2019-02-14T04:19:14.235Z,8.28
2019-02-14T04:20:20.277Z,6.70
2019-02-14T04:21:26.226Z,6.60
2019-02-14T04:22:32.078Z,6.30
2019-02-14T04:23:37.967Z,6.33
2019-02-14T04:24:44.408Z,6.80
2019-02-14T04:25:50.418Z,6.20
2019-02-14T04:26:56.215Z,6.40
2019-02-14T04:28:03.710Z,5.70
2019-02-14T04:29:10.168Z,6.00
2019-02-14T04:30:18.207Z,6.10
2019-02-14T04:31:24.719Z,6.17
2019-02-14T04:32:31.616Z,5.85
2019-02-14T04:33:38.956Z,7.92
2019-02-14T04:34:46.401Z,7.60
2019-02-14T04:35:55.979Z,6.60
2019-02-14T04:37:03.494Z,6.08
2019-02-14T04:38:10.439Z,6.50
2019-02-14T04:39:17.880Z,6.78
2019-02-14T04:40:33.234Z,7.20
2019-02-14T04:41:33.089Z,6.65
2019-02-14T04:42:40.785Z,6.45
2019-02-14T04:43:47.873Z,7.03
2019-02-14T04:44:54.934Z,7.40
2019-02-14T04:46:00.619Z,7.40
2019-02-14T04:47:06.307Z,6.75
2019-02-14T04:48:12.259Z,9.45
2019-02-14T04:49:18.119Z,7.92
2019-02-14T04:50:25.945Z,7.00
2019-02-14T04:51:32.553Z,7.80
2019-02-14T04:52:39.130Z,6.10
2019-02-14T04:53:45.710Z,5.72
2019-02-14T04:54:51.779Z,6.15
2019-02-14T04:55:58.027Z,6.53
2019-02-14T04:57:04.887Z,5.30
2019-02-14T04:58:11.309Z,5.10
2019-02-14T04:59:17.367Z,5.58
2019-02-14T05:00:23.558Z,5.87
2019-02-14T05:01:29.566Z,6.10
2019-02-14T05:02:38.117Z,6.08
2019-02-14T05:03:45.646Z,5.58
2019-02-14T05:04:52.419Z,4.95
2019-02-14T05:05:58.772Z,5.15
2019-02-14T05:07:05.411Z,5.15
2019-02-14T05:08:12.273Z,8.45
2019-02-14T05:09:18.764Z,9.40
2019-02-14T05:10:25.044Z,20.50
2019-02-14T05:11:31.501Z,10.88
2019-02-14T05:12:38.934Z,9.13
2019-02-14T05:13:46.384Z,6.50
2019-02-14T05:14:52.924Z,5.87
2019-02-14T05:15:58.835Z,6.60
2019-02-14T05:17:04.543Z,6.60
2019-02-14T05:18:10.414Z,5.97
2019-02-14T05:19:16.654Z,6.00
2019-02-14T05:20:22.304Z,5.45
2019-02-14T05:21:28.621Z,5.45
2019-02-14T05:22:34.874Z,5.33
2019-02-14T05:23:40.861Z,5.30
2019-02-14T05:24:47.159Z,6.67
2019-02-14T05:25:53.324Z,35.03
2019-02-14T05:26:59.652Z,75.80
2019-02-14T05:28:06.001Z,54.50
2019-02-14T05:29:12.684Z,18.98
2019-02-14T05:30:20.641Z,8.93
2019-02-14T05:31:27.021Z,6.87
2019-02-14T05:32:33.724Z,6.75
2019-02-14T05:33:40.844Z,6.95
2019-02-14T05:34:47.654Z,6.37
2019-02-14T05:35:54.092Z,6.72
2019-02-14T05:37:01.054Z,7.50
2019-02-14T05:38:08.655Z,9.43
2019-02-14T05:39:14.964Z,8.70
2019-02-14T05:40:21.483Z,9.40
2019-02-14T05:41:27.863Z,11.25
2019-02-14T05:42:35.806Z,12.60
2019-02-14T05:43:43.317Z,9.90
2019-02-14T05:44:50.905Z,8.28
2019-02-14T05:45:58.258Z,7.40
2019-02-14T05:47:04.095Z,7.83
2019-02-14T05:48:10.355Z,7.17
2019-02-14T05:49:16.737Z,7.23
2019-02-14T05:50:22.907Z,8.18
2019-02-14T05:51:28.583Z,9.48
2019-02-14T05:52:34.464Z,9.23
2019-02-14T05:53:41.075Z,9.83
2019-02-14T05:54:46.835Z,9.48
2019-02-14T05:55:52.846Z,9.08
2019-02-14T05:56:59.275Z,11.88
2019-02-14T05:58:05.166Z,14.07
2019-02-14T05:59:12.285Z,13.32
2019-02-14T06:00:20.146Z,10.90
2019-02-14T06:01:37.056Z,10.15
2019-02-14T06:02:43.933Z,9.63
2019-02-14T06:04:34.615Z,9.60
2019-02-14T06:05:51.435Z,9.05
2019-02-14T06:07:06.492Z,9.08
2019-02-14T06:08:15.963Z,8.63
2019-02-14T06:09:23.112Z,9.48
2019-02-14T06:10:34.344Z,10.03
2019-02-14T06:11:47.265Z,9.83
2019-02-14T06:12:53.632Z,11.20
2019-02-14T06:14:01.705Z,12.98
2019-02-14T06:15:12.193Z,9.80
2019-02-14T06:16:18.265Z,10.70
2019-02-14T06:17:25.955Z,10.95
2019-02-14T06:18:33.694Z,11.63
2019-02-14T06:19:40.125Z,26.40
2019-02-14T06:20:46.252Z,11.83
2019-02-14T06:21:53.082Z,10.60
2019-02-14T06:23:00.985Z,10.30
2019-02-14T06:24:07.595Z,15.63
2019-02-14T06:25:15.033Z,15.98
2019-02-14T06:26:23.379Z,14.03
2019-02-14T06:27:29.642Z,24.18
2019-02-14T06:28:37.320Z,21.27
2019-02-14T06:29:43.522Z,23.55
2019-02-14T06:31:08.463Z,23.73
2019-02-14T06:32:15.685Z,30.68
2019-02-14T06:33:57.795Z,33.20
2019-02-14T06:35:12.462Z,26.48
2019-02-14T06:36:19.865Z,27.50
2019-02-14T06:37:30.792Z,39.78
2019-02-14T06:38:48.182Z,42.95
2019-02-14T06:40:05.164Z,30.70
2019-02-14T06:41:34.481Z,19.30
2019-02-14T06:42:54.930Z,24.23
2019-02-14T06:44:03.100Z,44.70
2019-02-14T06:45:46.143Z,31.97
2019-02-14T06:47:05.414Z,56.10
2019-02-14T06:48:32.255Z,31.57
2019-02-14T06:49:54.872Z,33.48
2019-02-14T06:51:18.297Z,17.32
2019-02-14T06:52:44.656Z,37.40
2019-02-14T06:54:12.355Z,22.33
2019-02-14T06:55:56.505Z,46.68
2019-02-14T06:57:23.175Z,39.15
2019-02-14T06:58:44.344Z,27.58
2019-02-14T06:59:57.603Z,25.80
2019-02-14T07:02:56.703Z,33.08
2019-02-14T07:04:05.515Z,24.37
2019-02-14T07:05:16.695Z,37.00
2019-02-14T07:06:35.741Z,35.10
2019-02-14T07:07:44.227Z,61.20
2019-02-14T07:08:53.283Z,87.42
2019-02-14T07:10:03.595Z,91.67
2019-02-14T07:11:15.594Z,96.17
2019-02-14T07:12:32.902Z,106.60
2019-02-14T07:13:48.282Z,85.17
2019-02-14T07:14:58.202Z,35.98
2019-02-14T07:16:20.382Z,113.77
2019-02-14T07:17:46.997Z,112.75
2019-02-14T07:18:57.102Z,184.23
2019-02-14T07:20:04.555Z,154.87
2019-02-14T07:21:18.134Z,164.43
2019-02-14T07:22:48.165Z,139.10
2019-02-14T07:24:20.983Z,58.03
2019-02-14T07:25:47.204Z,46.37
2019-02-14T07:29:25.618Z,30.87
2019-02-14T07:31:28.854Z,22.17
2019-02-14T07:32:54.038Z,25.07
2019-02-14T07:34:27.725Z,23.43
2019-02-14T07:35:40.103Z,25.37
2019-02-14T07:37:14.755Z,58.33
2019-02-14T07:38:30.162Z,69.70
2019-02-14T07:39:43.770Z,32.83
2019-02-14T07:41:12.763Z,29.40
2019-02-14T07:42:41.843Z,40.23
2019-02-14T07:44:19.935Z,29.57
2019-02-14T07:46:24.617Z,15.10
2019-02-14T07:47:40.284Z,22.73
2019-02-14T07:48:57.915Z,17.70
2019-02-14T07:50:18.156Z,16.53
2019-02-14T07:51:58.762Z,15.40
2019-02-14T07:53:09.209Z,15.28
2019-02-14T07:54:57.492Z,53.53
2019-02-14T07:58:30.435Z,63.13
2019-02-14T07:59:42.475Z,12.73
2019-02-14T08:00:55.155Z,17.83
2019-02-14T08:02:02.223Z,15.93
2019-02-14T08:03:09.530Z,17.10
2019-02-14T08:04:16.282Z,16.00
2019-02-14T08:05:24.595Z,17.63
2019-02-14T08:06:31.542Z,15.80
2019-02-14T08:07:38.618Z,15.23
2019-02-14T08:08:45.241Z,14.90
2019-02-14T08:09:52.443Z,12.30
2019-02-14T08:10:59.482Z,12.00
2019-02-14T08:12:06.443Z,15.00
2019-02-14T08:13:13.554Z,11.77
2019-02-14T08:14:20.355Z,12.60
2019-02-14T08:15:26.622Z,14.47
2019-02-14T08:16:32.554Z,17.07
2019-02-14T08:17:38.794Z,44.53
2019-02-14T08:18:44.502Z,30.50
2019-02-14T08:19:50.382Z,24.67
2019-02-14T08:20:56.114Z,27.20
2019-02-14T08:22:02.094Z,22.10
2019-02-14T08:23:48.615Z,16.63
2019-02-14T08:24:54.495Z,16.37
2019-02-14T08:26:01.084Z,13.87
2019-02-14T08:27:06.822Z,13.83
2019-02-14T08:28:12.504Z,13.17
2019-02-14T08:29:19.042Z,17.70
2019-02-14T08:30:25.355Z,18.43
2019-02-14T08:31:31.495Z,19.80
2019-02-14T08:32:37.935Z,13.17
2019-02-14T08:33:45.162Z,20.20
2019-02-14T08:34:51.675Z,21.40
2019-02-14T08:35:57.334Z,20.77
2019-02-14T08:37:03.274Z,14.73
2019-02-14T08:38:10.543Z,25.03
2019-02-14T08:39:17.795Z,29.00
2019-02-14T08:40:34.541Z,23.17
2019-02-14T08:41:40.422Z,21.90
2019-02-14T08:42:46.955Z,15.90
2019-02-14T08:43:53.675Z,23.90
2019-02-14T08:44:59.992Z,14.93
2019-02-14T08:46:06.764Z,13.47
2019-02-14T08:47:13.850Z,12.60
2019-02-14T08:48:19.555Z,19.67
2019-02-14T08:49:25.235Z,12.50
2019-02-14T08:50:31.196Z,10.83
2019-02-14T08:51:37.263Z,10.00
2019-02-14T08:52:43.236Z,10.30
2019-02-14T08:53:48.941Z,13.60
2019-02-14T08:54:54.691Z,9.90
2019-02-14T08:56:00.336Z,9.10
2019-02-14T08:57:06.249Z,9.30
2019-02-14T08:58:12.374Z,13.17
2019-02-14T08:59:18.121Z,10.63
2019-02-14T09:00:25.164Z,11.73
2019-02-14T09:01:32.982Z,11.87
2019-02-14T09:02:38.976Z,11.27
2019-02-14T09:03:46.675Z,10.83
2019-02-14T09:04:53.281Z,11.50
2019-02-14T09:06:00.036Z,10.13
2019-02-14T09:07:07.156Z,8.77
2019-02-14T09:08:13.016Z,8.17
2019-02-14T09:09:20.223Z,7.40
2019-02-14T09:10:26.306Z,6.20
2019-02-14T09:11:32.224Z,6.10
2019-02-14T09:12:39.344Z,6.17
2019-02-14T09:13:45.734Z,5.50
2019-02-14T09:14:51.781Z,7.10
2019-02-14T09:15:58.076Z,7.50
2019-02-14T09:17:04.774Z,9.73
2019-02-14T09:18:10.656Z,9.37
2019-02-14T09:19:16.562Z,10.50
2019-02-14T09:20:23.121Z,7.43
2019-02-14T09:21:28.799Z,17.57
2019-02-14T09:22:35.115Z,14.87
2019-02-14T09:23:41.037Z,13.90
2019-02-14T09:24:47.375Z,10.70
2019-02-14T09:25:53.022Z,8.43
2019-02-14T09:26:58.944Z,9.30
2019-02-14T09:28:04.694Z,10.00
2019-02-14T09:29:13.692Z,10.27
2019-02-14T09:30:19.215Z,7.53
2019-02-14T09:31:26.731Z,12.17
2019-02-14T09:32:32.835Z,8.07
2019-02-14T09:33:38.480Z,12.00
2019-02-14T09:34:44.754Z,6.43
2019-02-14T09:35:51.737Z,10.40
2019-02-14T09:36:57.716Z,5.97
2019-02-14T09:38:03.908Z,5.90
2019-02-14T09:39:10.196Z,10.70
2019-02-14T09:40:19.764Z,7.30
2019-02-14T09:41:26.795Z,8.13
2019-02-14T09:42:32.590Z,21.37
2019-02-14T09:43:39.637Z,8.17
2019-02-14T09:44:46.241Z,8.60
2019-02-14T09:45:52.182Z,8.13
2019-02-14T09:46:57.881Z,7.70
2019-02-14T09:48:03.601Z,5.80
2019-02-14T09:49:09.277Z,5.87
2019-02-14T09:50:16.014Z,5.33
2019-02-14T09:51:21.675Z,5.30
2019-02-14T09:52:27.387Z,7.37
2019-02-14T09:53:34.048Z,7.10
2019-02-14T09:54:41.074Z,5.10
2019-02-14T09:55:46.821Z,6.20
2019-02-14T09:56:52.921Z,11.23
2019-02-14T09:57:58.609Z,6.03
2019-02-14T09:59:04.971Z,6.83
2019-02-14T10:00:20.894Z,9.90
2019-02-14T10:01:26.586Z,6.07
2019-02-14T10:02:33.407Z,6.00
2019-02-14T10:03:39.647Z,8.00
2019-02-14T10:04:46.951Z,12.47
2019-02-14T10:05:53.107Z,10.30
2019-02-14T10:06:58.977Z,5.90
2019-02-14T10:08:12.441Z,4.60
2019-02-14T10:09:14.087Z,4.50
2019-02-14T10:10:22.145Z,5.37
2019-02-14T10:11:27.826Z,5.57
2019-02-14T10:12:34.441Z,7.07
2019-02-14T10:13:40.123Z,6.50
2019-02-14T10:14:46.655Z,6.23
2019-02-14T10:15:52.374Z,6.50
2019-02-14T10:16:58.774Z,10.10
2019-02-14T10:18:04.815Z,6.00
2019-02-14T10:19:10.541Z,3.87
2019-02-14T10:20:19.705Z,4.30
2019-02-14T10:21:25.754Z,4.77
2019-02-14T10:22:31.557Z,5.50
2019-02-14T10:23:37.254Z,5.07
2019-02-14T10:24:45.068Z,6.37
2019-02-14T10:25:51.155Z,4.07
2019-02-14T10:26:57.014Z,4.13
2019-02-14T10:28:03.007Z,4.50
2019-02-14T10:29:09.714Z,7.87
2019-02-14T10:30:23.381Z,5.10
2019-02-14T10:31:29.254Z,6.53
2019-02-14T10:32:35.915Z,7.00
2019-02-14T10:33:42.587Z,10.30
2019-02-14T10:34:48.810Z,13.60
2019-02-14T10:35:55.077Z,6.47
2019-02-14T10:37:01.694Z,7.37
2019-02-14T10:38:07.434Z,9.70
2019-02-14T10:39:14.261Z,11.20
2019-02-14T10:40:20.165Z,8.23
2019-02-14T10:41:26.755Z,7.13
2019-02-14T10:42:33.044Z,6.80
2019-02-14T10:43:38.803Z,4.63
2019-02-14T10:44:45.154Z,4.37
2019-02-14T10:45:51.661Z,6.50
2019-02-14T10:46:57.636Z,4.23
2019-02-14T10:48:03.355Z,5.80
2019-02-14T10:49:09.083Z,4.77
2019-02-14T10:50:14.803Z,4.23
2019-02-14T10:51:20.514Z,4.30
2019-02-14T10:52:26.194Z,4.37
2019-02-14T10:53:31.875Z,5.50
2019-02-14T10:54:37.955Z,5.70
2019-02-14T10:55:43.641Z,7.93
2019-02-14T10:56:49.922Z,5.57
2019-02-14T10:57:56.039Z,4.00
2019-02-14T10:59:01.695Z,4.00
2019-02-14T11:00:16.085Z,4.67
2019-02-14T11:01:21.377Z,4.00
2019-02-14T11:02:27.062Z,4.73
2019-02-14T11:03:32.763Z,5.50
2019-02-14T11:04:38.515Z,6.43
2019-02-14T11:05:44.945Z,4.70
2019-02-14T11:06:51.962Z,5.03
2019-02-14T11:07:57.975Z,5.97
2019-02-14T11:09:05.194Z,5.00
2019-02-14T11:10:15.404Z,5.00
2019-02-14T11:11:21.334Z,4.30
2019-02-14T11:12:28.495Z,6.53
2019-02-14T11:13:35.203Z,6.50
2019-02-14T11:14:41.104Z,5.30
2019-02-14T11:15:48.054Z,4.43
2019-02-14T11:16:53.894Z,5.30
2019-02-14T11:17:59.595Z,5.20
2019-02-14T11:19:05.322Z,5.10
2019-02-14T11:20:13.984Z,5.97
2019-02-14T11:21:20.175Z,5.27
2019-02-14T11:22:30.095Z,5.23
2019-02-14T11:23:35.782Z,5.20
2019-02-14T11:24:42.353Z,5.10
2019-02-14T11:25:48.075Z,6.80
2019-02-14T11:26:53.993Z,6.30
2019-02-14T11:27:59.675Z,5.80
2019-02-14T11:29:05.382Z,8.33
2019-02-14T11:30:14.381Z,9.63
2019-02-14T11:31:20.116Z,8.63
2019-02-14T11:32:25.837Z,8.83
2019-02-14T11:33:31.537Z,8.77
2019-02-14T11:34:37.246Z,10.67
2019-02-14T11:35:42.956Z,8.70
2019-02-14T11:36:48.624Z,7.57
2019-02-14T11:37:54.294Z,9.10
2019-02-14T11:38:59.998Z,8.13
2019-02-14T11:40:11.456Z,9.60
2019-02-14T11:41:17.167Z,7.90
2019-02-14T11:42:22.873Z,9.17
2019-02-14T11:43:28.564Z,10.00
2019-02-14T11:44:39.716Z,8.43
2019-02-14T11:45:41.556Z,7.10
2019-02-14T11:46:51.472Z,5.30
2019-02-14T11:47:54.582Z,5.43
2019-02-14T11:49:00.255Z,5.90
2019-02-14T11:50:10.034Z,7.30
2019-02-14T11:51:15.677Z,8.73
2019-02-14T11:52:21.394Z,9.27
2019-02-14T11:53:29.293Z,9.57
2019-02-14T11:54:34.435Z,12.10
2019-02-14T11:55:40.574Z,10.13
2019-02-14T11:56:46.602Z,7.87
2019-02-14T11:57:52.511Z,7.90
2019-02-14T11:58:58.503Z,7.57
2019-02-14T12:00:07.665Z,8.63
2019-02-14T12:01:13.982Z,12.37
2019-02-14T12:02:20.581Z,7.53
2019-02-14T12:03:26.681Z,8.43
2019-02-14T12:04:34.394Z,10.67
2019-02-14T12:05:41.443Z,6.60
2019-02-14T12:06:47.889Z,7.30
2019-02-14T12:07:55.814Z,8.33
2019-02-14T12:09:02.282Z,6.13
2019-02-14T12:10:13.426Z,7.27
2019-02-14T12:11:19.114Z,5.17
2019-02-14T12:12:25.846Z,5.47
2019-02-14T12:13:32.921Z,6.50
2019-02-14T12:14:39.134Z,6.03
2019-02-14T12:15:45.175Z,4.90
2019-02-14T12:16:52.363Z,4.93
2019-02-14T12:17:59.001Z,6.43
2019-02-14T12:19:04.922Z,5.33
2019-02-14T12:20:17.956Z,6.00
2019-02-14T12:21:23.695Z,6.17
2019-02-14T12:22:29.394Z,6.30
2019-02-14T12:23:35.063Z,6.10
2019-02-14T12:24:41.014Z,6.10
2019-02-14T12:25:46.695Z,6.67
2019-02-14T12:26:52.795Z,6.40
2019-02-14T12:27:58.675Z,5.73
2019-02-14T12:29:04.455Z,5.93
2019-02-14T12:30:14.094Z,6.57
2019-02-14T12:31:20.835Z,6.27
2019-02-14T12:32:26.562Z,8.93
2019-02-14T12:33:33.559Z,15.73
2019-02-14T12:34:39.884Z,36.70
2019-02-14T12:35:46.729Z,12.57
2019-02-14T12:36:53.156Z,89.90
2019-02-14T12:37:58.835Z,34.63
2019-02-14T12:39:09.086Z,76.33
2019-02-14T12:40:14.863Z,55.00
2019-02-14T12:41:20.494Z,114.97
2019-02-14T12:42:26.636Z,29.50
2019-02-14T12:43:33.136Z,66.70
2019-02-14T12:44:39.074Z,30.07
2019-02-14T12:45:45.663Z,158.07
2019-02-14T12:46:51.993Z,19.40
2019-02-14T12:47:57.757Z,45.70
2019-02-14T12:49:03.402Z,30.97
2019-02-14T12:50:10.639Z,7.67
2019-02-14T12:51:16.271Z,18.80
2019-02-14T12:52:21.854Z,26.77
2019-02-14T12:53:27.483Z,30.90
2019-02-14T12:54:33.155Z,11.93
2019-02-14T12:55:38.825Z,41.47
2019-02-14T12:56:44.480Z,9.07
2019-02-14T12:57:50.057Z,27.90
2019-02-14T12:58:55.714Z,18.50
2019-02-14T13:00:01.788Z,48.10
2019-02-14T13:01:09.717Z,74.63
2019-02-14T13:02:16.317Z,68.80
2019-02-14T13:03:21.932Z,48.30
2019-02-14T13:04:28.708Z,25.60
2019-02-14T13:05:35.277Z,17.40
2019-02-14T13:06:41.343Z,13.87
2019-02-14T13:07:47.848Z,12.90
2019-02-14T13:08:53.545Z,5.93
2019-02-14T13:09:59.093Z,6.77
2019-02-14T13:11:04.727Z,21.47
2019-02-14T13:12:10.930Z,19.93
2019-02-14T13:13:16.734Z,14.10
2019-02-14T13:14:22.648Z,19.43
2019-02-14T13:15:30.083Z,15.07
2019-02-14T13:16:35.841Z,22.03
2019-02-14T13:17:42.054Z,13.50
2019-02-14T13:18:47.652Z,17.47
2019-02-14T13:19:53.290Z,12.57
2019-02-14T13:20:59.030Z,32.70
2019-02-14T13:22:04.623Z,17.13
2019-02-14T13:23:10.236Z,31.10
2019-02-14T13:24:15.887Z,33.23
2019-02-14T13:25:21.571Z,64.73
2019-02-14T13:26:27.190Z,43.17
2019-02-14T13:27:32.994Z,28.50
2019-02-14T13:28:38.626Z,21.47
2019-02-14T13:29:44.660Z,19.40
2019-02-14T13:30:50.745Z,14.57
2019-02-14T13:31:56.550Z,15.60
2019-02-14T13:33:03.209Z,61.17
2019-02-14T13:34:10.411Z,23.30
2019-02-14T13:35:16.646Z,18.00
2019-02-14T13:36:22.889Z,14.13
2019-02-14T13:37:28.503Z,66.47
2019-02-14T13:38:34.369Z,23.17
2019-02-14T13:39:41.779Z,20.03
2019-02-14T13:40:47.757Z,23.03
2019-02-14T13:41:53.850Z,20.17
2019-02-14T13:43:00.604Z,22.00
2019-02-14T13:44:06.370Z,16.40
2019-02-14T13:45:19.566Z,11.07
2019-02-14T13:46:25.227Z,8.60
2019-02-14T13:47:31.393Z,8.70
2019-02-14T13:48:38.570Z,9.07
2019-02-14T13:49:44.177Z,8.90
2019-02-14T13:50:49.844Z,8.67
2019-02-14T13:51:55.481Z,9.43
2019-02-14T13:53:01.152Z,9.03
2019-02-14T13:54:07.058Z,9.17
2019-02-14T13:55:12.736Z,11.77
2019-02-14T13:56:18.417Z,18.30
2019-02-14T13:57:24.461Z,17.17
2019-02-14T13:58:30.113Z,10.30
2019-02-14T13:59:36.747Z,9.47
2019-02-14T14:00:43.260Z,11.07
2019-02-14T14:01:48.893Z,10.00
2019-02-14T14:02:55.150Z,9.97
2019-02-14T14:04:02.084Z,9.87
2019-02-14T14:05:09.118Z,9.77
2019-02-14T14:06:16.513Z,9.97
2019-02-14T14:07:23.208Z,11.67
2019-02-14T14:08:29.242Z,16.03
2019-02-14T14:09:38.698Z,15.27
2019-02-14T14:10:43.395Z,15.30
2019-02-14T14:11:49.503Z,17.23
2019-02-14T14:12:55.727Z,15.67
2019-02-14T14:14:01.456Z,12.03
2019-02-14T14:15:11.451Z,9.30
2019-02-14T14:16:17.614Z,11.50
2019-02-14T14:17:23.796Z,8.67
2019-02-14T14:18:29.756Z,7.93
2019-02-14T14:19:36.626Z,8.80
2019-02-14T14:20:42.267Z,7.93
2019-02-14T14:21:48.204Z,8.37
2019-02-14T14:22:53.866Z,8.17
2019-02-14T14:23:59.561Z,7.87
2019-02-14T14:25:07.589Z,7.27
2019-02-14T14:26:13.178Z,8.33
2019-02-14T14:27:19.342Z,8.30
2019-02-14T14:28:25.106Z,7.60
2019-02-14T14:29:30.741Z,7.93
2019-02-14T14:30:36.427Z,8.20
2019-02-14T14:31:42.505Z,9.10
2019-02-14T14:32:48.907Z,8.47
2019-02-14T14:33:55.659Z,7.87
2019-02-14T14:35:01.541Z,10.90
2019-02-14T14:36:07.335Z,8.90
2019-02-14T14:37:13.101Z,8.10
2019-02-14T14:38:19.528Z,8.77
2019-02-14T14:39:25.484Z,8.30
2019-02-14T14:40:31.373Z,9.47
2019-02-14T14:41:37.627Z,8.87
2019-02-14T14:42:52.064Z,9.10
2019-02-14T14:44:02.237Z,8.33
2019-02-14T14:45:10.787Z,8.60
2019-02-14T14:46:18.467Z,8.43
2019-02-14T14:47:25.147Z,9.23
2019-02-14T14:48:33.927Z,8.43
2019-02-14T14:49:39.578Z,8.93
2019-02-14T14:50:45.214Z,9.03
2019-02-14T14:51:50.984Z,9.90
2019-02-14T14:52:56.627Z,9.17
2019-02-14T14:54:02.341Z,10.83
2019-02-14T14:55:07.974Z,11.07
2019-02-14T14:56:13.661Z,11.13
2019-02-14T14:57:20.826Z,10.37
2019-02-14T14:58:26.474Z,11.57